createdAt,value
2018-04-18T00:02:16.981Z,23.77
2018-04-18T00:04:46.376Z,21.58
2018-04-18T00:07:15.623Z,26.35
2018-04-18T00:09:44.309Z,20.20
2018-04-18T00:12:12.680Z,20.05
2018-04-18T00:14:41.064Z,19.50
2018-04-18T00:17:09.476Z,16.55
2018-04-18T00:19:38.897Z,19.08
2018-04-18T00:22:08.247Z,22.65
2018-04-18T00:24:50.945Z,27.58
2018-04-18T00:27:19.359Z,20.75
2018-04-18T00:29:48.232Z,26.65
2018-04-18T00:32:17.107Z,18.83
2018-04-18T00:34:45.951Z,19.65
2018-04-18T00:37:17.719Z,23.95
2018-04-18T00:39:52.836Z,25.55
2018-04-18T00:42:23.669Z,19.58
2018-04-18T00:44:53.662Z,31.35
2018-04-18T00:47:22.797Z,21.05
2018-04-18T00:49:52.452Z,25.85
2018-04-18T00:52:21.408Z,23.98
2018-04-18T00:54:52.294Z,23.27
2018-04-18T00:57:21.479Z,39.35
2018-04-18T00:59:50.383Z,22.55
2018-04-18T01:02:20.831Z,23.85
2018-04-18T01:04:50.170Z,18.37
2018-04-18T01:07:20.145Z,20.30
2018-04-18T01:09:55.277Z,31.60
2018-04-18T01:12:24.026Z,15.63
2018-04-18T01:14:52.613Z,22.25
2018-04-18T01:17:20.982Z,20.25
2018-04-18T01:19:49.381Z,19.85
2018-04-18T01:22:17.774Z,19.67
2018-04-18T01:24:46.140Z,17.73
2018-04-18T01:27:14.712Z,17.08
2018-04-18T01:29:46.071Z,15.00
2018-04-18T01:32:14.464Z,21.58
2018-04-18T01:34:42.869Z,17.27
2018-04-18T01:37:11.243Z,15.50
2018-04-18T01:39:39.640Z,20.17
2018-04-18T01:42:08.784Z,22.98
2018-04-18T01:44:37.569Z,15.10
2018-04-18T01:47:05.941Z,17.40
2018-04-18T01:49:34.315Z,13.73
2018-04-18T01:52:02.708Z,11.57
2018-04-18T01:54:31.080Z,17.52
2018-04-18T01:56:59.655Z,15.07
2018-04-18T01:59:28.022Z,17.70
2018-04-18T02:01:56.383Z,15.02
2018-04-18T02:04:25.561Z,13.80
2018-04-18T02:06:54.755Z,12.70
2018-04-18T02:09:23.166Z,14.75
2018-04-18T02:11:51.533Z,16.05
2018-04-18T02:14:20.665Z,22.52
2018-04-18T02:16:49.060Z,24.45
2018-04-18T02:19:17.441Z,19.23
2018-04-18T02:21:46.815Z,20.58
2018-04-18T02:24:15.188Z,20.52
2018-04-18T02:26:43.556Z,24.45
2018-04-18T02:29:11.952Z,16.00
2018-04-18T02:31:40.346Z,13.93
2018-04-18T02:34:08.872Z,13.05
2018-04-18T02:36:38.020Z,15.38
2018-04-18T02:39:06.389Z,13.13
2018-04-18T02:41:34.795Z,13.60
2018-04-18T02:44:03.173Z,15.52
2018-04-18T02:46:31.833Z,18.27
2018-04-18T02:49:00.204Z,19.50
2018-04-18T02:51:28.585Z,23.42
2018-04-18T02:53:56.985Z,24.63
2018-04-18T02:56:25.380Z,18.00
2018-04-18T02:58:53.788Z,17.27
2018-04-18T03:01:22.928Z,19.83
2018-04-18T03:03:51.297Z,15.48
2018-04-18T03:06:19.684Z,18.87
2018-04-18T03:08:48.049Z,17.08
2018-04-18T03:11:16.454Z,15.75
2018-04-18T03:13:44.821Z,20.92
2018-04-18T03:16:13.184Z,21.30
2018-04-18T03:18:41.569Z,14.18
2018-04-18T03:21:09.941Z,13.85
2018-04-18T03:23:38.360Z,16.98
2018-04-18T03:26:06.758Z,25.12
2018-04-18T03:28:35.889Z,13.93
2018-04-18T03:31:04.276Z,17.37
2018-04-18T03:33:32.647Z,11.70
2018-04-18T03:36:01.237Z,15.68
2018-04-18T03:38:29.611Z,14.23
2018-04-18T03:40:57.976Z,16.20
2018-04-18T03:43:26.366Z,18.30
2018-04-18T03:45:54.773Z,12.50
2018-04-18T03:48:23.339Z,16.58
2018-04-18T03:50:51.705Z,14.70
2018-04-18T03:53:20.077Z,17.17
2018-04-18T03:55:48.534Z,13.70
2018-04-18T03:58:17.664Z,17.27
2018-04-18T04:00:46.345Z,21.15
2018-04-18T04:03:14.720Z,24.50
2018-04-18T04:05:43.283Z,19.25
2018-04-18T04:08:12.530Z,69.80
2018-04-18T04:10:40.893Z,31.80
2018-04-18T04:13:09.313Z,21.42
2018-04-18T04:15:37.686Z,21.75
2018-04-18T04:18:24.041Z,24.48
2018-04-18T04:21:10.183Z,21.00
2018-04-18T04:23:56.847Z,17.52
2018-04-18T04:26:25.219Z,17.77
2018-04-18T04:28:53.596Z,17.42
2018-04-18T04:31:22.021Z,25.67
2018-04-18T04:33:50.393Z,16.80
2018-04-18T04:36:18.816Z,22.00
2018-04-18T04:38:47.183Z,21.70
2018-04-18T04:41:16.317Z,18.12
2018-04-18T04:43:44.709Z,17.92
2018-04-18T04:46:13.080Z,21.77
2018-04-18T04:48:41.652Z,20.12
2018-04-18T04:51:10.021Z,23.17
2018-04-18T04:53:38.595Z,22.08
2018-04-18T04:56:06.977Z,22.90
2018-04-18T04:58:35.353Z,26.90
2018-04-18T05:01:04.169Z,24.50
2018-04-18T05:03:32.532Z,35.83
2018-04-18T05:06:00.906Z,21.27
2018-04-18T05:08:29.293Z,18.00
2018-04-18T05:10:57.665Z,17.52
2018-04-18T05:13:26.257Z,19.95
2018-04-18T05:15:54.620Z,24.48
2018-04-18T05:18:22.992Z,27.95
2018-04-18T05:20:51.374Z,22.25
2018-04-18T05:23:19.736Z,22.42
2018-04-18T05:25:49.168Z,24.87
2018-04-18T05:28:17.530Z,22.20
2018-04-18T05:30:46.042Z,44.13
2018-04-18T05:33:15.752Z,31.85
2018-04-18T05:35:44.285Z,38.75
2018-04-18T05:38:12.868Z,27.05
2018-04-18T05:40:42.009Z,45.72
2018-04-18T05:43:10.389Z,19.55
2018-04-18T05:45:38.792Z,25.98
2018-04-18T05:48:07.171Z,17.67
2018-04-18T05:50:35.577Z,30.25
2018-04-18T05:53:04.723Z,48.30
2018-04-18T05:55:33.099Z,50.03
2018-04-18T05:58:01.507Z,48.70
2018-04-18T06:00:29.896Z,32.25
2018-04-18T06:02:58.407Z,49.92
2018-04-18T06:05:26.788Z,30.27
2018-04-18T06:07:55.171Z,29.20
2018-04-18T06:10:23.626Z,36.50
2018-04-18T06:12:52.781Z,34.03
2018-04-18T06:15:21.457Z,32.33
2018-04-18T06:17:49.827Z,27.50
2018-04-18T06:20:18.208Z,33.67
2018-04-18T06:22:46.600Z,43.50
2018-04-18T06:25:14.994Z,42.75
2018-04-18T06:27:43.752Z,32.38
2018-04-18T06:30:12.129Z,28.50
2018-04-18T06:32:40.509Z,42.75
2018-04-18T06:35:08.912Z,40.33
2018-04-18T06:37:37.285Z,22.33
2018-04-18T06:40:06.129Z,29.77
2018-04-18T06:42:34.461Z,28.20
2018-04-18T06:45:02.845Z,30.80
2018-04-18T06:47:32.084Z,35.83
2018-04-18T06:50:00.462Z,42.58
2018-04-18T06:52:28.883Z,25.73
2018-04-18T06:54:57.256Z,25.35
2018-04-18T06:57:25.634Z,35.60
2018-04-18T06:59:54.028Z,46.00
2018-04-18T07:02:22.408Z,29.25
2018-04-18T07:04:50.835Z,22.17
2018-04-18T07:07:19.220Z,22.87
2018-04-18T07:09:47.596Z,24.67
2018-04-18T07:12:15.997Z,25.00
2018-04-18T07:14:44.393Z,24.90
2018-04-18T07:17:12.812Z,17.08
2018-04-18T07:19:41.958Z,25.35
2018-04-18T07:22:10.351Z,20.15
2018-04-18T07:24:38.770Z,39.15
2018-04-18T07:27:07.964Z,26.02
2018-04-18T07:29:37.408Z,21.83
2018-04-18T07:32:05.796Z,34.30
2018-04-18T07:34:34.184Z,15.65
2018-04-18T07:37:02.591Z,13.10
2018-04-18T07:39:31.746Z,15.00
2018-04-18T07:42:00.164Z,14.70
2018-04-18T07:44:28.553Z,14.87
2018-04-18T07:46:57.689Z,11.73
2018-04-18T07:49:26.085Z,23.30
2018-04-18T07:51:54.466Z,11.27
2018-04-18T07:54:23.350Z,14.50
2018-04-18T07:56:51.725Z,15.23
2018-04-18T07:59:20.122Z,17.80
2018-04-18T08:01:48.529Z,23.80
2018-04-18T08:04:17.681Z,16.33
2018-04-18T08:06:46.273Z,16.90
2018-04-18T08:09:14.653Z,17.00
2018-04-18T08:11:43.028Z,16.10
2018-04-18T08:14:11.432Z,13.60
2018-04-18T08:16:39.822Z,14.43
2018-04-18T08:19:09.373Z,25.07
2018-04-18T08:21:37.757Z,15.43
2018-04-18T08:24:06.252Z,21.97
2018-04-18T08:26:34.665Z,16.40
2018-04-18T08:29:03.812Z,14.23
2018-04-18T08:31:32.229Z,16.03
2018-04-18T08:34:00.632Z,10.83
2018-04-18T08:36:29.785Z,14.90
2018-04-18T08:38:58.198Z,14.00
2018-04-18T08:41:27.357Z,17.10
2018-04-18T08:43:55.925Z,19.17
2018-04-18T08:46:24.299Z,13.83
2018-04-18T08:48:52.714Z,13.33
2018-04-18T08:51:21.101Z,16.10
2018-04-18T08:53:49.476Z,11.70
2018-04-18T08:56:18.936Z,12.70
2018-04-18T08:58:47.296Z,15.77
2018-04-18T09:01:15.670Z,13.43
2018-04-18T09:03:44.953Z,13.27
2018-04-18T09:06:14.111Z,12.37
2018-04-18T09:08:42.684Z,15.83
2018-04-18T09:11:11.057Z,17.10
2018-04-18T09:13:39.437Z,13.23
2018-04-18T09:16:07.838Z,16.07
2018-04-18T09:18:36.225Z,11.57
2018-04-18T09:21:04.724Z,15.63
2018-04-18T09:23:33.101Z,34.50
2018-04-18T09:26:02.289Z,14.97
2018-04-18T09:28:31.488Z,14.37
2018-04-18T09:30:59.877Z,14.33
2018-04-18T09:33:29.329Z,12.60
2018-04-18T09:35:57.696Z,11.40
2018-04-18T09:38:26.061Z,9.50
2018-04-18T09:40:54.465Z,17.73
2018-04-18T09:43:22.831Z,7.90
2018-04-18T09:45:51.247Z,10.13
2018-04-18T09:48:19.626Z,8.77
2018-04-18T09:50:48.007Z,12.20
2018-04-18T09:53:16.404Z,12.43
2018-04-18T09:55:44.768Z,7.93
2018-04-18T09:58:13.197Z,13.43
2018-04-18T10:00:47.984Z,10.50
2018-04-18T10:03:16.369Z,18.23
2018-04-18T10:05:44.760Z,9.73
2018-04-18T10:08:13.919Z,14.63
2018-04-18T10:10:42.320Z,26.93
2018-04-18T10:13:10.856Z,16.60
2018-04-18T10:15:39.237Z,8.20
2018-04-18T10:18:07.612Z,8.27
2018-04-18T10:20:36.009Z,10.87
2018-04-18T10:23:04.402Z,17.40
2018-04-18T10:25:32.807Z,16.93
2018-04-18T10:28:01.963Z,14.47
2018-04-18T10:30:30.372Z,9.20
2018-04-18T10:32:59.545Z,13.33
2018-04-18T10:35:27.936Z,7.20
2018-04-18T10:37:56.351Z,8.20
2018-04-18T10:40:24.716Z,9.20
2018-04-18T10:42:53.884Z,25.80
2018-04-18T10:45:22.355Z,18.40
2018-04-18T10:47:50.929Z,9.50
2018-04-18T10:50:19.295Z,11.07
2018-04-18T10:52:47.669Z,10.53
2018-04-18T10:55:16.077Z,8.80
2018-04-18T10:57:44.461Z,10.90
2018-04-18T11:00:12.853Z,14.27
2018-04-18T11:02:41.230Z,7.17
2018-04-18T11:05:09.620Z,10.23
2018-04-18T11:07:38.025Z,6.40
2018-04-18T11:10:06.396Z,9.40
2018-04-18T11:12:35.560Z,15.00
2018-04-18T11:15:03.937Z,23.50
2018-04-18T11:17:32.337Z,18.77
2018-04-18T11:20:01.491Z,11.80
2018-04-18T11:22:29.918Z,6.90
2018-04-18T11:24:59.084Z,4.83
2018-04-18T11:27:27.477Z,11.63
2018-04-18T11:29:55.873Z,9.73
2018-04-18T11:32:25.020Z,12.00
2018-04-18T11:34:53.416Z,10.77
2018-04-18T11:37:21.788Z,9.87
2018-04-18T11:39:50.370Z,6.03
2018-04-18T11:42:18.738Z,6.63
2018-04-18T11:44:47.111Z,9.43
2018-04-18T11:47:15.594Z,12.90
2018-04-18T11:49:43.974Z,10.03
2018-04-18T11:52:12.373Z,9.37
2018-04-18T11:54:40.749Z,9.00
2018-04-18T11:57:09.349Z,8.97
2018-04-18T11:59:37.725Z,8.50
2018-04-18T12:02:06.096Z,8.43
2018-04-18T12:04:34.556Z,8.20
2018-04-18T12:07:02.927Z,7.70
2018-04-18T12:09:31.324Z,5.03
2018-04-18T12:11:59.716Z,5.70
2018-04-18T12:14:28.109Z,5.70
2018-04-18T12:16:57.304Z,17.67
2018-04-18T12:19:26.464Z,5.13
2018-04-18T12:21:54.867Z,8.63
2018-04-18T12:24:23.241Z,17.40
2018-04-18T12:26:51.897Z,7.87
2018-04-18T12:29:20.274Z,8.43
2018-04-18T12:31:49.529Z,11.90
2018-04-18T12:34:18.669Z,12.43
2018-04-18T12:36:47.245Z,8.97
2018-04-18T12:39:15.630Z,7.30
2018-04-18T12:41:43.997Z,6.17
2018-04-18T12:44:12.396Z,9.13
2018-04-18T12:46:40.772Z,12.30
2018-04-18T12:49:09.154Z,9.17
2018-04-18T12:51:37.526Z,14.03
2018-04-18T12:54:06.103Z,5.37
2018-04-18T12:56:34.480Z,7.13
2018-04-18T12:59:02.966Z,8.63
2018-04-18T13:01:31.365Z,12.17
2018-04-18T13:03:59.743Z,6.30
2018-04-18T13:06:28.163Z,11.33
2018-04-18T13:08:56.538Z,12.83
2018-04-18T13:11:26.069Z,5.40
2018-04-18T13:13:54.437Z,11.23
2018-04-18T13:16:22.803Z,9.30
2018-04-18T13:18:51.193Z,6.97
2018-04-18T13:21:19.565Z,16.70
2018-04-18T13:23:47.969Z,7.53
2018-04-18T13:26:16.346Z,13.23
2018-04-18T13:28:45.124Z,9.47
2018-04-18T13:31:13.497Z,6.63
2018-04-18T13:33:41.865Z,15.40
2018-04-18T13:36:10.267Z,15.47
2018-04-18T13:38:38.628Z,8.37
2018-04-18T13:41:07.031Z,9.67
2018-04-18T13:43:35.413Z,11.27
2018-04-18T13:46:03.834Z,6.63
2018-04-18T13:48:32.978Z,9.50
2018-04-18T13:51:01.367Z,6.30
2018-04-18T13:53:29.765Z,14.70
2018-04-18T13:55:58.932Z,8.37
2018-04-18T13:58:27.349Z,8.07
2018-04-18T14:00:55.724Z,13.03
2018-04-18T14:03:24.130Z,10.67
2018-04-18T14:05:53.266Z,8.43
2018-04-18T14:08:21.639Z,8.17
2018-04-18T14:10:50.040Z,13.43
2018-04-18T14:13:18.437Z,10.73
2018-04-18T14:15:46.837Z,17.17
2018-04-18T14:18:15.990Z,17.33
2018-04-18T14:20:44.398Z,9.43
2018-04-18T14:23:12.777Z,13.83
2018-04-18T14:25:41.157Z,19.00
2018-04-18T14:28:09.561Z,13.87
2018-04-18T14:30:37.940Z,10.53
2018-04-18T14:33:06.343Z,8.53
2018-04-18T14:35:34.718Z,12.70
2018-04-18T14:38:03.273Z,11.07
2018-04-18T14:40:32.410Z,8.70
2018-04-18T14:43:00.779Z,8.03
2018-04-18T14:45:29.211Z,11.00
2018-04-18T14:47:57.600Z,19.40
2018-04-18T14:50:26.770Z,19.63
2018-04-18T14:52:55.160Z,9.30
2018-04-18T14:55:23.582Z,10.10
2018-04-18T14:57:51.953Z,13.13
2018-04-18T15:00:20.565Z,12.00
2018-04-18T15:02:49.046Z,13.30
2018-04-18T15:05:17.447Z,21.40
2018-04-18T15:07:45.845Z,13.30
2018-04-18T15:10:14.213Z,12.13
2018-04-18T15:12:42.860Z,14.73
2018-04-18T15:15:11.244Z,13.90
2018-04-18T15:17:39.727Z,12.97
2018-04-18T15:20:08.120Z,11.80
2018-04-18T15:22:36.518Z,12.57
2018-04-18T15:25:04.932Z,18.43
2018-04-18T15:27:33.303Z,41.37
2018-04-18T15:30:01.721Z,15.83
2018-04-18T15:32:30.100Z,23.27
2018-04-18T15:34:58.533Z,12.83
2018-04-18T15:37:27.732Z,14.53
2018-04-18T15:39:56.894Z,27.90
2018-04-18T15:42:25.313Z,16.13
2018-04-18T15:44:54.459Z,14.00
2018-04-18T15:47:22.908Z,20.57
2018-04-18T15:49:51.292Z,12.63
2018-04-18T15:52:19.686Z,11.20
2018-04-18T15:54:48.083Z,14.63
2018-04-18T15:57:16.463Z,13.50
2018-04-18T15:59:44.870Z,14.23
2018-04-18T16:02:14.014Z,15.73
2018-04-18T16:04:42.428Z,11.67
2018-04-18T16:07:11.569Z,12.33
2018-04-18T16:09:39.974Z,12.50
2018-04-18T16:12:08.417Z,7.70
2018-04-18T16:14:36.820Z,8.83
2018-04-18T16:17:05.234Z,16.03
2018-04-18T16:19:33.623Z,17.20
2018-04-18T16:22:02.221Z,13.27
2018-04-18T16:24:31.363Z,12.10
2018-04-18T16:26:59.749Z,14.00
2018-04-18T16:29:43.933Z,11.53
2018-04-18T16:32:12.319Z,9.80
2018-04-18T16:34:41.489Z,8.77
2018-04-18T16:37:09.856Z,9.70
2018-04-18T16:39:38.285Z,10.63
2018-04-18T16:42:07.437Z,8.97
2018-04-18T16:44:35.800Z,8.43
2018-04-18T16:47:04.199Z,9.37
2018-04-18T16:49:32.663Z,8.70
2018-04-18T16:52:01.345Z,10.80
2018-04-18T16:54:29.832Z,13.53
2018-04-18T16:56:58.202Z,12.33
2018-04-18T16:59:26.677Z,11.07
2018-04-18T17:01:55.052Z,11.40
2018-04-18T17:04:23.492Z,10.03
2018-04-18T17:06:52.659Z,23.53
2018-04-18T17:09:21.144Z,14.20
2018-04-18T17:11:49.513Z,11.67
2018-04-18T17:14:17.890Z,10.17
2018-04-18T17:16:46.300Z,10.70
2018-04-18T17:19:15.448Z,12.80
2018-04-18T17:21:43.881Z,10.53
2018-04-18T17:24:13.020Z,20.03
2018-04-18T17:26:41.400Z,13.03
2018-04-18T17:29:09.890Z,10.97
2018-04-18T17:31:38.424Z,16.00
2018-04-18T17:34:08.160Z,15.53
2018-04-18T17:36:36.868Z,13.47
2018-04-18T17:39:06.274Z,11.87
2018-04-18T17:41:35.566Z,17.00
2018-04-18T17:44:03.997Z,26.53
2018-04-18T17:46:33.191Z,20.37
2018-04-18T17:49:02.329Z,22.97
2018-04-18T17:51:30.761Z,17.60
2018-04-18T17:53:59.141Z,12.67
2018-04-18T17:56:28.447Z,10.47
2018-04-18T17:58:57.589Z,17.93
2018-04-18T18:01:25.969Z,17.07
2018-04-18T18:03:54.392Z,17.00
2018-04-18T18:06:23.552Z,23.13
2018-04-18T18:08:51.977Z,14.73
2018-04-18T18:11:21.121Z,20.53
2018-04-18T18:13:49.815Z,17.77
2018-04-18T18:16:18.325Z,19.47
2018-04-18T18:18:46.743Z,20.13
2018-04-18T18:21:15.908Z,14.40
2018-04-18T18:23:44.290Z,20.23
2018-04-18T18:26:13.546Z,17.60
2018-04-18T18:28:45.530Z,26.90
2018-04-18T18:31:14.193Z,15.40
2018-04-18T18:33:42.625Z,30.53
2018-04-18T18:36:11.785Z,19.87
2018-04-18T18:38:40.265Z,19.37
2018-04-18T18:41:08.689Z,27.73
2018-04-18T18:43:37.456Z,24.83
2018-04-18T18:46:06.630Z,21.73
2018-04-18T18:48:35.295Z,22.13
2018-04-18T18:51:03.684Z,20.17
2018-04-18T18:53:32.664Z,27.57
2018-04-18T18:56:02.185Z,31.13
2018-04-18T18:58:30.676Z,18.73
2018-04-18T19:00:59.548Z,24.67
2018-04-18T19:03:27.937Z,30.33
2018-04-18T19:05:56.413Z,23.23
2018-04-18T19:08:24.926Z,24.33
2018-04-18T19:10:53.356Z,29.70
2018-04-18T19:13:21.765Z,23.43
2018-04-18T19:15:50.435Z,27.53
2018-04-18T19:18:19.016Z,32.90
2018-04-18T19:20:48.621Z,22.47
2018-04-18T19:23:17.615Z,30.07
2018-04-18T19:25:46.061Z,20.10
2018-04-18T19:28:14.625Z,26.73
2018-04-18T19:30:43.980Z,28.13
2018-04-18T19:33:12.381Z,21.73
2018-04-18T19:35:43.025Z,24.30
2018-04-18T19:38:12.493Z,31.67
2018-04-18T19:40:41.153Z,27.07
2018-04-18T19:43:09.762Z,25.33
2018-04-18T19:45:39.165Z,22.23
2018-04-18T19:48:07.650Z,24.50
2018-04-18T19:50:36.152Z,24.23
2018-04-18T19:53:04.646Z,25.93
2018-04-18T19:55:33.958Z,25.23
2018-04-18T19:58:03.133Z,21.77
2018-04-18T20:00:31.807Z,31.93
2018-04-18T20:03:00.729Z,28.00
2018-04-18T20:05:30.377Z,29.70
2018-04-18T20:07:59.182Z,22.90
2018-04-18T20:10:28.046Z,22.40
2018-04-18T20:12:56.958Z,26.40
2018-04-18T20:15:25.408Z,25.43
2018-04-18T20:17:53.785Z,24.60
2018-04-18T20:20:22.200Z,39.00
2018-04-18T20:22:50.664Z,36.33
2018-04-18T20:25:19.081Z,28.57
2018-04-18T20:27:47.496Z,23.10
2018-04-18T20:30:16.110Z,23.20
2018-04-18T20:32:44.599Z,21.87
2018-04-18T20:35:13.014Z,31.98
2018-04-18T20:37:42.482Z,37.08
2018-04-18T20:40:10.885Z,30.03
2018-04-18T20:42:39.322Z,23.10
2018-04-18T20:45:07.742Z,21.70
2018-04-18T20:50:17.909Z,31.45
2018-04-18T20:52:46.316Z,25.05
2018-04-18T20:55:15.818Z,27.40
2018-04-18T20:57:44.232Z,35.85
2018-04-18T21:00:12.625Z,29.17
2018-04-18T21:02:41.079Z,28.75
2018-04-18T21:05:09.502Z,22.33
2018-04-18T21:07:38.075Z,31.75
2018-04-18T21:10:06.473Z,22.23
2018-04-18T21:12:35.229Z,28.77
2018-04-18T21:15:03.613Z,24.65
2018-04-18T21:17:32.004Z,23.25
2018-04-18T21:20:00.416Z,40.85
2018-04-18T21:22:30.239Z,23.17
2018-04-18T21:24:59.415Z,23.98
2018-04-18T21:27:27.816Z,20.88
2018-04-18T21:29:57.268Z,20.58
2018-04-18T21:32:26.671Z,20.73
2018-04-18T21:34:55.553Z,28.23
2018-04-18T21:37:23.981Z,26.30
2018-04-18T21:39:53.591Z,24.20
2018-04-18T21:42:22.515Z,23.58
2018-04-18T21:44:50.929Z,24.05
2018-04-18T21:47:20.011Z,25.83
2018-04-18T21:49:55.220Z,24.63
2018-04-18T21:52:25.881Z,24.98
2018-04-18T21:54:55.292Z,24.23
2018-04-18T21:57:28.737Z,31.73
2018-04-18T21:59:57.137Z,22.73
2018-04-18T22:02:25.524Z,21.80
2018-04-18T22:04:53.925Z,27.13
2018-04-18T22:07:22.305Z,22.25
2018-04-18T22:09:50.721Z,35.78
2018-04-18T22:12:19.880Z,23.48
2018-04-18T22:14:48.308Z,28.00
2018-04-18T22:17:16.692Z,24.55
2018-04-18T22:19:45.093Z,25.10
2018-04-18T22:22:13.516Z,26.05
2018-04-18T22:24:41.927Z,24.60
2018-04-18T22:27:11.105Z,33.42
2018-04-18T22:29:40.463Z,28.95
2018-04-18T22:32:09.060Z,25.12
2018-04-18T22:34:37.474Z,24.95
2018-04-18T22:37:06.632Z,22.45
2018-04-18T22:39:35.056Z,28.60
2018-04-18T22:42:04.205Z,34.97
2018-04-18T22:44:32.618Z,26.73
2018-04-18T22:47:01.814Z,26.23
2018-04-18T22:49:31.016Z,29.08
2018-04-18T22:52:00.258Z,23.40
2018-04-18T22:54:28.656Z,35.72
2018-04-18T22:56:57.072Z,31.62
2018-04-18T22:59:26.576Z,27.02
2018-04-18T23:01:55.760Z,25.12
2018-04-18T23:04:24.138Z,36.65
2018-04-18T23:06:52.582Z,28.50
2018-04-18T23:09:20.946Z,26.77
2018-04-18T23:11:49.462Z,36.25
2018-04-18T23:14:19.237Z,36.80
2018-04-18T23:16:47.616Z,29.10
2018-04-18T23:19:16.020Z,27.17
2018-04-18T23:21:44.405Z,44.28
2018-04-18T23:24:13.068Z,30.85
2018-04-18T23:26:41.444Z,25.52
2018-04-18T23:29:09.820Z,37.20
2018-04-18T23:31:39.150Z,39.13
2018-04-18T23:34:07.521Z,27.60
2018-04-18T23:36:35.918Z,30.08
2018-04-18T23:39:04.317Z,29.40
2018-04-18T23:41:33.577Z,36.45
2018-04-18T23:44:01.961Z,27.58
2018-04-18T23:46:30.332Z,29.08
2018-04-18T23:48:58.736Z,31.05
2018-04-18T23:51:27.891Z,29.70
2018-04-18T23:53:56.341Z,38.15
2018-04-18T23:56:25.478Z,33.13
2018-04-18T23:58:53.881Z,28.50
